createdAt,value
2018-12-05T00:00:51.608Z,94.60
2018-12-05T00:03:19.110Z,95.30
2018-12-05T00:05:46.603Z,95.40
2018-12-05T00:08:14.204Z,95.40
2018-12-05T00:10:41.738Z,95.30
2018-12-05T00:13:09.207Z,95.20
2018-12-05T00:15:36.726Z,95.10
2018-12-05T00:18:04.348Z,94.90
2018-12-05T00:20:31.880Z,94.90
2018-12-05T00:22:59.387Z,95.50
2018-12-05T00:25:26.905Z,95.50
2018-12-05T00:27:54.396Z,95.10
2018-12-05T00:30:21.906Z,95.00
2018-12-05T00:32:49.422Z,94.60
2018-12-05T00:35:16.944Z,95.00
2018-12-05T00:37:44.494Z,94.90
2018-12-05T00:40:12.142Z,95.00
2018-12-05T00:42:39.689Z,95.40
2018-12-05T00:45:07.239Z,95.60
2018-12-05T00:47:34.867Z,95.20
2018-12-05T00:50:02.460Z,95.50
2018-12-05T00:52:29.985Z,95.00
2018-12-05T00:54:57.462Z,95.60
2018-12-05T00:57:24.970Z,95.90
2018-12-05T00:59:52.599Z,95.90
2018-12-05T01:02:20.135Z,96.30
2018-12-05T01:04:47.631Z,96.30
2018-12-05T01:07:15.143Z,95.90
2018-12-05T01:09:42.759Z,96.00
2018-12-05T01:12:10.419Z,96.40
2018-12-05T01:14:37.918Z,96.60
2018-12-05T01:17:05.674Z,96.70
2018-12-05T01:19:33.275Z,96.40
2018-12-05T01:22:00.926Z,96.30
2018-12-05T01:24:28.401Z,96.10
2018-12-05T01:26:55.895Z,96.10
2018-12-05T01:29:23.412Z,95.90
2018-12-05T01:31:50.917Z,96.20
2018-12-05T01:34:18.503Z,96.10
2018-12-05T01:36:46.029Z,96.30
2018-12-05T01:39:13.510Z,95.90
2018-12-05T01:41:40.992Z,95.80
2018-12-05T01:44:08.487Z,96.40
2018-12-05T01:46:35.999Z,97.10
2018-12-05T01:49:03.569Z,96.20
2018-12-05T01:51:31.072Z,96.50
2018-12-05T01:53:58.561Z,96.30
2018-12-05T01:56:26.088Z,96.60
2018-12-05T01:58:53.641Z,96.60
2018-12-05T02:01:21.162Z,96.50
2018-12-05T02:03:48.695Z,96.70
2018-12-05T02:06:16.164Z,97.00
2018-12-05T02:08:43.724Z,97.20
2018-12-05T02:11:11.281Z,96.30
2018-12-05T02:13:38.770Z,96.40
2018-12-05T02:16:06.321Z,96.40
2018-12-05T02:18:34.169Z,96.40
2018-12-05T02:21:01.682Z,96.40
2018-12-05T02:23:29.171Z,96.30
2018-12-05T02:25:56.671Z,96.50
2018-12-05T02:28:24.211Z,97.20
2018-12-05T02:30:51.713Z,97.30
2018-12-05T02:33:19.237Z,96.90
2018-12-05T02:35:46.726Z,96.70
2018-12-05T02:38:14.267Z,96.30
2018-12-05T02:40:41.785Z,96.70
2018-12-05T02:43:09.263Z,96.70
2018-12-05T02:45:36.779Z,96.90
2018-12-05T02:48:04.289Z,96.80
2018-12-05T02:50:31.865Z,97.40
2018-12-05T02:52:59.363Z,97.70
2018-12-05T02:55:26.907Z,97.40
2018-12-05T02:57:54.410Z,97.20
2018-12-05T03:00:22.007Z,97.20
2018-12-05T03:02:49.496Z,97.20
2018-12-05T03:05:17.160Z,97.50
2018-12-05T03:07:44.667Z,97.50
2018-12-05T03:10:12.215Z,97.70
2018-12-05T03:12:39.837Z,97.90
2018-12-05T03:15:07.434Z,97.90
2018-12-05T03:17:34.914Z,97.90
2018-12-05T03:20:02.506Z,97.90
2018-12-05T03:22:30.012Z,97.80
2018-12-05T03:24:57.596Z,98.50
2018-12-05T03:27:25.141Z,98.40
2018-12-05T03:29:52.671Z,98.20
2018-12-05T03:32:20.206Z,98.20
2018-12-05T03:34:47.814Z,98.30
2018-12-05T03:37:15.468Z,98.70
2018-12-05T03:39:42.976Z,97.80
2018-12-05T03:42:10.719Z,97.80
2018-12-05T03:44:38.241Z,97.80
2018-12-05T03:47:05.851Z,97.70
2018-12-05T03:49:33.325Z,97.90
2018-12-05T03:52:00.788Z,97.50
2018-12-05T03:54:28.304Z,97.20
2018-12-05T03:56:55.837Z,97.40
2018-12-05T03:59:23.361Z,97.60
2018-12-05T04:01:50.850Z,97.60
2018-12-05T04:04:18.352Z,97.60
2018-12-05T04:06:45.934Z,97.60
2018-12-05T04:09:13.443Z,97.60
2018-12-05T04:11:41.174Z,97.10
2018-12-05T04:14:08.669Z,97.30
2018-12-05T04:16:36.174Z,97.20
2018-12-05T04:19:03.791Z,97.70
2018-12-05T04:21:31.269Z,97.60
2018-12-05T04:23:58.819Z,97.20
2018-12-05T04:26:26.346Z,96.70
2018-12-05T04:28:53.914Z,96.40
2018-12-05T04:31:21.399Z,96.80
2018-12-05T04:33:48.892Z,96.40
2018-12-05T04:36:16.412Z,96.60
2018-12-05T04:38:44.011Z,96.30
2018-12-05T04:41:11.531Z,96.60
2018-12-05T04:43:39.027Z,96.50
2018-12-05T04:46:06.550Z,96.20
2018-12-05T04:48:34.076Z,96.50
2018-12-05T04:51:01.585Z,96.50
2018-12-05T04:53:29.098Z,96.70
2018-12-05T04:55:56.685Z,97.60
2018-12-05T04:58:24.242Z,97.70
2018-12-05T05:00:51.779Z,97.70
2018-12-05T05:03:19.244Z,97.10
2018-12-05T05:05:46.795Z,97.30
2018-12-05T05:08:14.275Z,97.60
2018-12-05T05:10:41.779Z,97.50
2018-12-05T05:13:09.309Z,97.30
2018-12-05T05:15:36.828Z,97.80
2018-12-05T05:18:04.320Z,97.50
2018-12-05T05:20:31.842Z,97.40
2018-12-05T05:22:59.391Z,97.70
2018-12-05T05:25:26.915Z,97.60
2018-12-05T05:27:54.404Z,97.80
2018-12-05T05:30:21.939Z,97.80
2018-12-05T05:32:51.445Z,97.80
2018-12-05T05:35:19.010Z,98.10
2018-12-05T05:37:46.539Z,98.50
2018-12-05T05:40:14.035Z,98.60
2018-12-05T05:42:41.548Z,98.20
2018-12-05T05:45:09.020Z,98.20
2018-12-05T05:47:36.505Z,98.40
2018-12-05T05:50:06.758Z,98.50
2018-12-05T05:52:34.269Z,98.50
2018-12-05T05:55:01.773Z,98.40
2018-12-05T05:57:29.240Z,98.60
2018-12-05T05:59:56.764Z,98.70
2018-12-05T06:02:24.286Z,99.10
2018-12-05T06:04:51.832Z,98.90
2018-12-05T06:07:19.548Z,98.70
2018-12-05T06:09:47.093Z,98.90
2018-12-05T06:12:14.596Z,99.10
2018-12-05T06:14:42.099Z,99.70
2018-12-05T06:17:10.876Z,99.70
2018-12-05T06:19:38.391Z,99.10
2018-12-05T06:22:06.824Z,98.50
2018-12-05T06:24:34.353Z,98.50
2018-12-05T06:27:01.838Z,98.50
2018-12-05T06:29:31.265Z,98.30
2018-12-05T06:31:58.776Z,98.40
2018-12-05T06:34:26.261Z,99.20
2018-12-05T06:36:54.884Z,99.70
2018-12-05T06:39:22.420Z,99.20
2018-12-05T06:41:50.058Z,98.40
2018-12-05T06:44:17.578Z,97.90
2018-12-05T06:46:45.206Z,97.90
2018-12-05T06:49:12.877Z,98.50
2018-12-05T06:51:40.494Z,98.90
2018-12-05T06:54:09.027Z,99.00
2018-12-05T06:56:36.491Z,99.50
2018-12-05T06:59:04.035Z,99.70
2018-12-05T07:01:31.507Z,99.90
2018-12-05T07:03:59.070Z,99.60
2018-12-05T07:06:26.572Z,99.80
2018-12-05T07:08:54.074Z,99.50
2018-12-05T07:11:21.570Z,99.30
2018-12-05T07:13:49.083Z,99.90
2018-12-05T07:16:16.593Z,99.80
2018-12-05T07:18:44.116Z,99.30
2018-12-05T07:21:11.579Z,99.10
2018-12-05T07:23:39.174Z,99.10
2018-12-05T07:26:06.976Z,99.20
2018-12-05T07:28:34.509Z,98.90
2018-12-05T07:31:01.995Z,99.30
2018-12-05T07:33:29.502Z,98.90
2018-12-05T07:35:56.975Z,99.10
2018-12-05T07:38:24.518Z,99.40
2018-12-05T07:40:51.997Z,99.40
2018-12-05T07:43:19.491Z,99.50
2018-12-05T07:45:47.000Z,99.60
2018-12-05T07:48:14.614Z,99.30
2018-12-05T07:50:42.158Z,99.90
2018-12-05T07:53:09.722Z,99.90
2018-12-05T07:55:37.245Z,99.70
2018-12-05T07:58:04.753Z,99.90
2018-12-05T08:00:32.279Z,99.90
2018-12-05T08:02:59.866Z,99.90
2018-12-05T08:05:27.348Z,99.90
2018-12-05T08:07:54.913Z,99.90
2018-12-05T08:10:22.410Z,99.70
2018-12-05T08:12:49.935Z,99.80
2018-12-05T08:15:17.391Z,99.90
2018-12-05T08:17:44.855Z,99.90
2018-12-05T08:20:12.353Z,99.90
2018-12-05T08:22:39.816Z,99.90
2018-12-05T08:25:07.387Z,99.90
2018-12-05T08:27:34.922Z,99.90
2018-12-05T08:30:02.450Z,99.90
2018-12-05T08:32:29.943Z,99.90
2018-12-05T08:34:57.414Z,99.90
2018-12-05T08:37:24.895Z,99.60
2018-12-05T08:39:52.434Z,99.80
2018-12-05T08:42:20.896Z,99.70
2018-12-05T08:44:48.480Z,99.20
2018-12-05T08:47:16.035Z,99.10
2018-12-05T08:49:43.615Z,99.10
2018-12-05T08:52:11.125Z,99.80
2018-12-05T08:54:38.586Z,99.90
2018-12-05T08:57:06.092Z,99.90
2018-12-05T08:59:33.585Z,99.90
2018-12-05T09:02:01.103Z,99.90
2018-12-05T09:04:28.591Z,99.90
2018-12-05T09:06:56.095Z,98.40
2018-12-05T09:09:23.575Z,98.80
2018-12-05T09:11:51.090Z,97.90
2018-12-05T09:14:18.660Z,97.90
2018-12-05T09:16:46.136Z,97.20
2018-12-05T09:19:13.669Z,96.50
2018-12-05T09:21:41.191Z,95.70
2018-12-05T09:24:08.822Z,95.20
2018-12-05T09:26:36.336Z,95.10
2018-12-05T09:29:03.803Z,95.20
2018-12-05T09:31:31.330Z,95.20
2018-12-05T09:33:58.904Z,94.80
2018-12-05T09:36:26.420Z,94.20
2018-12-05T09:38:54.026Z,94.10
2018-12-05T09:41:21.489Z,93.60
2018-12-05T09:43:49.009Z,93.40
2018-12-05T09:46:16.499Z,93.30
2018-12-05T09:48:43.980Z,93.40
2018-12-05T09:51:11.509Z,93.30
2018-12-05T09:53:39.074Z,93.30
2018-12-05T09:56:06.582Z,93.80
2018-12-05T09:58:34.145Z,93.40
2018-12-05T10:01:01.633Z,93.20
2018-12-05T10:03:29.115Z,92.50
2018-12-05T10:05:56.659Z,91.70
2018-12-05T10:08:24.161Z,92.10
2018-12-05T10:10:51.703Z,92.20
2018-12-05T10:13:19.256Z,91.90
2018-12-05T10:15:46.760Z,91.60
2018-12-05T10:18:14.270Z,91.60
2018-12-05T10:20:41.815Z,91.90
2018-12-05T10:23:09.299Z,91.60
2018-12-05T10:25:36.793Z,91.60
2018-12-05T10:28:04.281Z,90.60
2018-12-05T10:30:31.873Z,90.90
2018-12-05T10:32:59.380Z,90.20
2018-12-05T10:35:26.901Z,90.70
2018-12-05T10:37:54.585Z,90.30
2018-12-05T10:40:22.297Z,90.70
2018-12-05T10:42:49.810Z,91.00
2018-12-05T10:45:17.406Z,90.90
2018-12-05T10:47:44.878Z,90.90
2018-12-05T10:50:12.396Z,91.10
2018-12-05T10:52:40.041Z,90.80
2018-12-05T10:55:07.775Z,91.60
2018-12-05T10:57:35.261Z,91.60
2018-12-05T11:00:04.247Z,91.90
2018-12-05T11:02:37.373Z,90.90
2018-12-05T11:05:10.870Z,90.80
2018-12-05T11:07:43.978Z,90.90
2018-12-05T11:10:17.191Z,91.30
2018-12-05T11:12:50.511Z,91.30
2018-12-05T11:15:23.682Z,91.30
2018-12-05T11:17:54.680Z,91.50
2018-12-05T11:20:28.000Z,91.30
2018-12-05T11:23:01.293Z,91.40
2018-12-05T11:25:28.810Z,91.20
2018-12-05T11:27:56.287Z,91.50
2018-12-05T11:30:23.913Z,91.20
2018-12-05T11:32:51.512Z,91.10
2018-12-05T11:35:19.065Z,91.00
2018-12-05T11:37:46.580Z,91.10
2018-12-05T11:40:14.083Z,91.30
2018-12-05T11:42:41.640Z,91.00
2018-12-05T11:45:09.280Z,90.90
2018-12-05T11:47:36.743Z,90.80
2018-12-05T11:50:05.735Z,91.20
2018-12-05T11:52:33.282Z,90.50
2018-12-05T11:55:00.846Z,90.70
2018-12-05T11:57:28.370Z,90.40
2018-12-05T11:59:55.904Z,90.10
2018-12-05T12:02:23.400Z,89.90
2018-12-05T12:04:50.899Z,89.70
2018-12-05T12:07:18.427Z,90.00
2018-12-05T12:09:45.927Z,90.30
2018-12-05T12:15:21.383Z,89.20
2018-12-05T12:17:49.025Z,90.00
2018-12-05T12:20:16.532Z,89.60
2018-12-05T12:22:44.049Z,90.00
2018-12-05T12:25:11.626Z,90.30
2018-12-05T12:27:39.116Z,90.00
2018-12-05T12:30:06.750Z,90.00
2018-12-05T12:32:35.075Z,90.00
2018-12-05T12:35:02.553Z,89.40
2018-12-05T12:37:30.084Z,89.50
2018-12-05T12:39:57.560Z,89.30
2018-12-05T12:42:25.027Z,89.40
2018-12-05T12:44:52.520Z,89.10
2018-12-05T12:47:20.047Z,89.20
2018-12-05T12:49:47.552Z,88.10
2018-12-05T12:52:15.053Z,88.10
2018-12-05T12:54:42.660Z,87.30
2018-12-05T12:57:10.139Z,86.60
2018-12-05T12:59:37.646Z,85.80
2018-12-05T13:02:05.189Z,85.40
2018-12-05T13:04:32.686Z,85.30
2018-12-05T13:07:00.178Z,86.60
2018-12-05T13:09:27.703Z,87.40
2018-12-05T13:11:55.201Z,87.50
2018-12-05T13:14:22.670Z,87.30
2018-12-05T13:16:50.191Z,87.00
2018-12-05T13:19:17.708Z,87.40
2018-12-05T13:21:45.300Z,87.70
2018-12-05T13:24:12.794Z,88.10
2018-12-05T13:26:40.326Z,88.10
2018-12-05T13:29:07.825Z,89.20
2018-12-05T13:31:35.403Z,88.60
2018-12-05T13:34:02.904Z,89.00
2018-12-05T13:36:30.452Z,89.90
2018-12-05T13:38:57.985Z,90.30
2018-12-05T13:41:25.464Z,90.50
2018-12-05T13:43:52.991Z,90.50
2018-12-05T13:46:20.458Z,90.40
2018-12-05T13:48:47.983Z,90.70
2018-12-05T13:51:15.494Z,90.90
2018-12-05T13:53:43.026Z,90.80
2018-12-05T13:56:10.819Z,90.60
2018-12-05T13:58:38.298Z,90.80
2018-12-05T14:01:05.940Z,90.80
2018-12-05T14:03:33.523Z,90.50
2018-12-05T14:06:01.127Z,90.80
2018-12-05T14:08:28.621Z,90.80
2018-12-05T14:10:56.135Z,91.10
2018-12-05T14:13:23.665Z,91.00
2018-12-05T14:15:51.144Z,91.10
2018-12-05T14:18:18.683Z,91.10
2018-12-05T14:20:46.172Z,91.20
2018-12-05T14:23:13.651Z,90.90
2018-12-05T14:25:41.173Z,91.00
2018-12-05T14:28:09.083Z,90.90
2018-12-05T14:30:36.594Z,91.10
2018-12-05T14:33:04.089Z,91.60
2018-12-05T14:35:31.694Z,91.60
2018-12-05T14:37:59.223Z,91.60
2018-12-05T14:40:26.701Z,91.60
2018-12-05T14:42:54.179Z,91.60
2018-12-05T14:45:21.706Z,91.90
2018-12-05T14:47:49.188Z,92.20
2018-12-05T14:50:16.704Z,92.10
2018-12-05T14:52:44.188Z,92.30
2018-12-05T14:55:11.706Z,92.30
2018-12-05T14:57:39.182Z,92.10
2018-12-05T15:00:08.135Z,92.30
2018-12-05T15:02:35.601Z,92.20
2018-12-05T15:05:03.263Z,92.30
2018-12-05T15:07:30.881Z,91.90
2018-12-05T15:09:58.423Z,91.90
2018-12-05T15:12:25.952Z,91.90
2018-12-05T15:14:53.428Z,91.80
2018-12-05T15:17:22.715Z,91.80
2018-12-05T15:19:50.577Z,91.50
2018-12-05T15:22:18.056Z,92.00
2018-12-05T15:24:45.536Z,91.70
2018-12-05T15:27:13.181Z,91.80
2018-12-05T15:29:40.661Z,91.80
2018-12-05T15:32:08.191Z,92.00
2018-12-05T15:34:35.658Z,92.20
2018-12-05T15:37:03.193Z,92.20
2018-12-05T15:39:30.657Z,92.20
2018-12-05T15:41:58.220Z,92.10
2018-12-05T15:44:25.742Z,92.30
2018-12-05T15:46:53.265Z,92.50
2018-12-05T15:49:20.795Z,92.50
2018-12-05T15:51:48.269Z,92.60
2018-12-05T15:54:15.793Z,92.80
2018-12-05T15:56:43.293Z,92.60
2018-12-05T15:59:10.770Z,93.00
2018-12-05T16:01:38.327Z,93.10
2018-12-05T16:04:05.803Z,93.30
2018-12-05T16:06:33.344Z,93.00
2018-12-05T16:09:00.965Z,93.20
2018-12-05T16:11:28.492Z,93.70
2018-12-05T16:13:56.032Z,93.20
2018-12-05T16:16:23.594Z,93.10
2018-12-05T16:18:51.084Z,93.10
2018-12-05T16:21:18.686Z,93.10
2018-12-05T16:23:46.195Z,93.00
2018-12-05T16:26:13.789Z,92.80
2018-12-05T16:28:41.405Z,92.80
2018-12-05T16:31:09.023Z,92.90
2018-12-05T16:33:36.687Z,92.80
2018-12-05T16:36:04.264Z,92.60
2018-12-05T16:38:32.014Z,92.30
2018-12-05T16:41:01.054Z,92.40
2018-12-05T16:43:29.086Z,92.80
2018-12-05T16:45:56.589Z,92.60
2018-12-05T16:48:24.140Z,92.20
2018-12-05T16:50:51.647Z,92.10
2018-12-05T16:53:19.112Z,92.30
2018-12-05T16:55:46.607Z,92.50
2018-12-05T16:58:14.108Z,92.60
2018-12-05T17:00:41.671Z,92.70
2018-12-05T17:03:09.188Z,93.00
2018-12-05T17:05:36.729Z,93.40
2018-12-05T17:08:04.208Z,93.40
2018-12-05T17:10:31.742Z,93.00
2018-12-05T17:12:59.281Z,92.90
2018-12-05T17:15:26.826Z,93.10
2018-12-05T17:17:54.353Z,93.10
2018-12-05T17:20:22.893Z,93.10
2018-12-05T17:22:50.742Z,93.00
2018-12-05T17:25:18.523Z,93.00
2018-12-05T17:27:46.307Z,93.40
2018-12-05T17:30:13.978Z,93.50
2018-12-05T17:32:41.455Z,93.50
2018-12-05T17:35:09.391Z,93.90
2018-12-05T17:37:36.884Z,93.90
2018-12-05T17:40:04.935Z,93.70
2018-12-05T17:42:32.481Z,93.70
2018-12-05T17:44:59.967Z,93.90
2018-12-05T17:47:27.507Z,93.80
2018-12-05T17:49:54.997Z,93.90
2018-12-05T17:52:22.491Z,94.00
2018-12-05T17:54:49.986Z,93.90
2018-12-05T17:57:17.525Z,94.30
2018-12-05T17:59:45.103Z,94.30
2018-12-05T18:02:12.650Z,94.30
2018-12-05T18:04:40.191Z,94.30
2018-12-05T18:07:07.717Z,94.70
2018-12-05T18:09:35.208Z,94.80
2018-12-05T18:12:02.921Z,95.00
2018-12-05T18:14:30.467Z,95.00
2018-12-05T18:16:58.048Z,94.50
2018-12-05T18:19:26.615Z,94.40
2018-12-05T18:21:54.095Z,94.60
2018-12-05T18:24:21.684Z,94.60
2018-12-05T18:26:49.174Z,94.30
2018-12-05T18:29:16.703Z,94.70
2018-12-05T18:31:44.220Z,95.20
2018-12-05T18:34:11.785Z,95.30
2018-12-05T18:36:39.303Z,95.30
2018-12-05T18:39:07.226Z,95.30
2018-12-05T18:41:34.771Z,95.20
2018-12-05T18:44:02.392Z,95.30
2018-12-05T18:46:29.869Z,95.40
2018-12-05T18:48:57.373Z,95.30
2018-12-05T18:51:24.843Z,95.30
2018-12-05T18:53:52.364Z,95.20
2018-12-05T18:56:20.003Z,95.30
2018-12-05T18:58:47.498Z,95.30
2018-12-05T19:01:15.110Z,95.50
2018-12-05T19:03:42.719Z,95.50
2018-12-05T19:06:10.416Z,95.70
2018-12-05T19:08:37.935Z,96.10
2018-12-05T19:11:05.594Z,96.10
2018-12-05T19:13:35.082Z,96.20
2018-12-05T19:16:03.362Z,96.50
2018-12-05T19:18:30.972Z,96.40
2018-12-05T19:20:58.458Z,96.40
2018-12-05T19:23:26.093Z,96.30
2018-12-05T19:25:53.572Z,96.20
2018-12-05T19:28:21.044Z,96.20
2018-12-05T19:30:48.678Z,96.50
2018-12-05T19:33:16.410Z,96.90
2018-12-05T19:35:43.983Z,96.50
2018-12-05T19:38:11.551Z,96.70
2018-12-05T19:40:39.037Z,96.60
2018-12-05T19:43:06.678Z,96.60
2018-12-05T19:45:34.278Z,96.50
2018-12-05T19:48:02.156Z,96.40
2018-12-05T19:50:29.639Z,96.70
2018-12-05T19:52:57.166Z,96.90
2018-12-05T19:55:25.863Z,96.60
2018-12-05T19:57:53.495Z,96.50
2018-12-05T20:00:20.971Z,96.50
2018-12-05T20:02:48.608Z,97.00
2018-12-05T20:05:16.091Z,97.10
2018-12-05T20:07:43.647Z,96.90
2018-12-05T20:10:11.172Z,97.00
2018-12-05T20:12:38.863Z,97.10
2018-12-05T20:15:06.489Z,96.80
2018-12-05T20:17:33.965Z,96.60
2018-12-05T20:20:01.602Z,96.80
2018-12-05T20:22:29.091Z,96.60
2018-12-05T20:24:56.619Z,96.50
2018-12-05T20:27:24.139Z,96.50
2018-12-05T20:29:51.695Z,96.70
2018-12-05T20:32:19.537Z,96.30
2018-12-05T20:34:47.368Z,96.30
2018-12-05T20:37:14.941Z,96.30
2018-12-05T20:39:42.488Z,96.30
2018-12-05T20:42:10.742Z,96.50
2018-12-05T20:44:38.308Z,96.50
2018-12-05T20:47:05.812Z,96.50
2018-12-05T20:49:33.287Z,96.60
2018-12-05T20:52:00.939Z,96.40
2018-12-05T20:54:28.436Z,97.00
2018-12-05T20:56:55.955Z,96.90
2018-12-05T20:59:23.521Z,97.10
2018-12-05T21:01:51.675Z,96.90
2018-12-05T21:04:19.240Z,97.00
2018-12-05T21:06:46.784Z,97.10
2018-12-05T21:09:14.286Z,97.10
2018-12-05T21:11:41.772Z,97.10
2018-12-05T21:14:09.308Z,97.10
2018-12-05T21:16:36.814Z,97.60
2018-12-05T21:19:04.410Z,97.60
2018-12-05T21:21:31.990Z,97.70
2018-12-05T21:23:59.563Z,97.80
2018-12-05T21:26:27.047Z,97.80
2018-12-05T21:28:54.543Z,97.80
2018-12-05T21:31:22.374Z,97.60
2018-12-05T21:33:49.895Z,97.40
2018-12-05T21:36:17.374Z,97.30
2018-12-05T21:38:44.955Z,97.10
2018-12-05T21:41:12.444Z,97.80
2018-12-05T21:43:39.989Z,97.80
2018-12-05T21:46:07.521Z,97.60
2018-12-05T21:48:35.047Z,97.20
2018-12-05T21:51:02.614Z,97.10
2018-12-05T21:53:30.263Z,97.10
2018-12-05T21:55:58.054Z,97.10
2018-12-05T21:58:25.612Z,96.70
2018-12-05T22:00:53.088Z,96.60
2018-12-05T22:03:20.707Z,96.30
2018-12-05T22:05:48.221Z,96.50
2018-12-05T22:08:15.732Z,96.80
2018-12-05T22:10:43.301Z,96.80
2018-12-05T22:13:10.816Z,97.10
2018-12-05T22:15:38.407Z,97.30
2018-12-05T22:18:05.934Z,97.40
2018-12-05T22:20:33.532Z,97.10
2018-12-05T22:23:01.075Z,97.30
2018-12-05T22:25:28.631Z,97.60
2018-12-05T22:27:56.185Z,97.50
2018-12-05T22:30:23.770Z,97.40
2018-12-05T22:32:51.267Z,97.80
2018-12-05T22:35:18.802Z,97.60
2018-12-05T22:37:46.331Z,97.40
2018-12-05T22:40:13.807Z,97.20
2018-12-05T22:42:41.501Z,97.30
2018-12-05T22:45:09.152Z,97.20
2018-12-05T22:47:36.865Z,97.10
2018-12-05T22:50:05.334Z,97.20
2018-12-05T22:52:32.867Z,97.20
2018-12-05T22:55:00.375Z,97.50
2018-12-05T22:57:27.844Z,97.70
2018-12-05T22:59:55.366Z,97.70
2018-12-05T23:02:22.907Z,97.80
2018-12-05T23:04:50.480Z,97.80
2018-12-05T23:07:17.965Z,97.60
2018-12-05T23:09:45.493Z,97.60
2018-12-05T23:12:12.996Z,97.80
2018-12-05T23:14:40.525Z,97.80
2018-12-05T23:17:08.038Z,98.20
2018-12-05T23:19:36.137Z,98.40
2018-12-05T23:22:03.608Z,98.10
2018-12-05T23:24:31.103Z,98.80
2018-12-05T23:26:58.633Z,98.70
2018-12-05T23:29:26.215Z,98.40
2018-12-05T23:31:54.007Z,98.60
2018-12-05T23:34:21.534Z,98.60
2018-12-05T23:36:49.049Z,98.70
2018-12-05T23:39:16.577Z,99.00
2018-12-05T23:41:44.108Z,99.10
2018-12-05T23:44:11.573Z,98.60
2018-12-05T23:46:39.111Z,99.10
2018-12-05T23:49:06.622Z,99.10
2018-12-05T23:51:34.614Z,99.10
2018-12-05T23:54:02.168Z,99.20
2018-12-05T23:56:29.724Z,99.40
2018-12-05T23:58:57.243Z,99.50
